Ballerina — SKNY — position and weather

sailwx.info

Track history (hours):
 
Tides and Currents Weather Stations Pressure Air Temp Water Temp Dewpoint Dewpoint Depression Visibility Wind Speed Wind Dir Waves Ship Positions

Ballerina

Last reported at 2017-Oct-19 07:00 UTC. Time now 2017-Oct-19 07:29 UTC.
Position N 59°19' E 018°08'.

Type: Passenger vessel. MMSI: 265550720.

Date/timePositionNaut miles runAvg speedWind from/ knotsBaromVisibWave heightAir tempDewpointWater temp
2017-Oct-19 07:00N 59°19' E 018°08'1 1.9
2017-Oct-19 06:30N 59°19' E 018°06'0 0.3
2017-Oct-19 06:00N 59°19' E 018°06'1 2.9
2017-Oct-19 05:30N 59°19' E 018°09'2 4.0
2017-Oct-19 04:59N 59°20' E 018°05'0 0.0
2017-Oct-19 04:28N 59°20' E 018°05'0 0.0
2017-Oct-18 16:52N 59°20' E 018°05'1 1.4
2017-Oct-18 16:30N 59°19' E 018°06'0 0.4
2017-Oct-18 16:00N 59°20' E 018°05'1 1.9
2017-Oct-18 15:30N 59°19' E 018°07'1 1.4
2017-Oct-18 15:01N 59°19' E 018°08'0 0.0
2017-Oct-18 14:00N 59°19' E 018°08'1 1.7
2017-Oct-18 13:30N 59°19' E 018°07'1 2.9
2017-Oct-18 13:00N 59°20' E 018°05'2 4.7
2017-Oct-18 12:30N 59°19' E 018°09'1 2.6
2017-Oct-18 12:00N 59°21' E 018°09'2 3.5
2017-Oct-18 11:30N 59°19' E 018°07'1 2.9
2017-Oct-18 11:00N 59°20' E 018°05'2 4.3
2017-Oct-18 10:30N 59°19' E 018°09'1 2.7
2017-Oct-18 10:00N 59°21' E 018°09'2 3.5
2017-Oct-18 09:30N 59°19' E 018°07'2 3.1
2017-Oct-18 09:00N 59°20' E 018°05'0 0.0
2017-Oct-18 08:30N 59°20' E 018°05'0 0.0
2017-Oct-18 08:00N 59°20' E 018°05'0 0.0
2017-Oct-18 07:29N 59°20' E 018°05'2 3.4
2017-Oct-18 07:00N 59°19' E 018°08'1 1.9
2017-Oct-18 06:29N 59°19' E 018°06'0 0.5
2017-Oct-18 05:58N 59°19' E 018°06'1 1.6
2017-Oct-18 05:10N 59°20' E 018°05'0 0.0
2017-Oct-17 17:00N 59°20' E 018°05'1 1.2
2017-Oct-17 16:30N 59°19' E 018°06'1 1.0
2017-Oct-17 15:58N 59°20' E 018°05'1 2.4
2017-Oct-17 15:30N 59°19' E 018°07'1 1.3
2017-Oct-17 14:59N 59°19' E 018°08'2 3.9
2017-Oct-17 14:30N 59°20' E 018°05'2 4.2
2017-Oct-17 14:00N 59°19' E 018°08'1 1.8
2017-Oct-17 13:30N 59°19' E 018°07'1 2.9
2017-Oct-17 13:00N 59°20' E 018°05'2 4.6
2017-Oct-17 12:29N 59°19' E 018°09'1 2.8
2017-Oct-17 12:00N 59°21' E 018°09'2 3.7
2017-Oct-17 11:30N 59°19' E 018°07'1 2.3
2017-Oct-17 11:00N 59°20' E 018°05'2 3.9
2017-Oct-17 10:30N 59°19' E 018°09'1 2.8
2017-Oct-17 10:00N 59°21' E 018°09'2 3.6
2017-Oct-17 09:30N 59°19' E 018°07'2 2.8
2017-Oct-17 08:58N 59°20' E 018°05'0 0.0
2017-Oct-17 08:28N 59°20' E 018°05'0 0.0
2017-Oct-17 07:58N 59°20' E 018°05'0 0.0
2017-Oct-17 07:30N 59°20' E 018°05'2 3.2
2017-Oct-17 07:00N 59°19' E 018°08'1 2.0
2017-Oct-17 06:29N 59°19' E 018°06'0 0.3
2017-Oct-17 06:00N 59°19' E 018°06'1 2.8
2017-Oct-17 05:30N 59°19' E 018°08'2 4.0
2017-Oct-17 05:00N 59°20' E 018°05'0 0.0
2017-Oct-16 17:05N 59°20' E 018°05'0 0.0
2017-Oct-16 16:53N 59°20' E 018°05'1 1.5
2017-Oct-16 16:30N 59°19' E 018°06'0 0.7
2017-Oct-16 16:00N 59°20' E 018°05'1 2.1
2017-Oct-16 15:30N 59°19' E 018°07'0 0.7
2017-Oct-16 15:00N 59°19' E 018°08'0 0.4
2017-Oct-16 14:00N 59°19' E 018°08'1 1.9
2017-Oct-16 13:30N 59°19' E 018°07'1 2.9
2017-Oct-16 13:01N 59°20' E 018°05'2 4.7
2017-Oct-16 12:30N 59°19' E 018°09'1 2.8
2017-Oct-16 12:00N 59°21' E 018°09'2 3.6
2017-Oct-16 11:30N 59°19' E 018°07'2 3.4
2017-Oct-16 11:01N 59°20' E 018°05'2 4.8
2017-Oct-16 10:30N 59°19' E 018°09'1 2.8
2017-Oct-16 10:00N 59°21' E 018°09'2 3.6
2017-Oct-16 09:30N 59°19' E 018°07'2 2.9
2017-Oct-16 08:58N 59°20' E 018°05'0 0.0
2017-Oct-16 08:28N 59°20' E 018°05'0 0.2
2017-Oct-16 08:00N 59°20' E 018°05'0 0.4
2017-Oct-16 07:30N 59°20' E 018°05'2 3.9
2017-Oct-16 06:59N 59°19' E 018°08'1 2.4
2017-Oct-16 06:30N 59°19' E 018°06'0 0.7
2017-Oct-16 05:59N 59°19' E 018°07'1 1.8
2017-Oct-16 05:29N 59°19' E 018°08'2 4.0
2017-Oct-16 05:00N 59°20' E 018°05'  
2017-Oct-13 17:27N 59°20' E 018°05'0 0.0
2017-Oct-13 16:57N 59°20' E 018°05'1 2.2
2017-Oct-13 16:30N 59°19' E 018°06'1 1.5
2017-Oct-13 16:00N 59°20' E 018°05'1 2.0
2017-Oct-13 15:30N 59°19' E 018°07'0 0.9
2017-Oct-13 15:00N 59°19' E 018°08'2 3.5
2017-Oct-13 14:30N 59°20' E 018°05'2 4.1
2017-Oct-13 14:00N 59°19' E 018°08'1 1.8
2017-Oct-13 13:30N 59°19' E 018°07'1 2.6
2017-Oct-13 13:00N 59°20' E 018°05'2 4.8
2017-Oct-13 12:30N 59°19' E 018°09'1 2.8
2017-Oct-13 12:00N 59°21' E 018°09'2 3.5
2017-Oct-13 11:31N 59°19' E 018°07'1 2.7
2017-Oct-13 11:00N 59°20' E 018°05'2 4.2
2017-Oct-13 10:30N 59°19' E 018°09'1 2.8
2017-Oct-13 10:00N 59°21' E 018°09'2 3.6
2017-Oct-13 09:30N 59°19' E 018°07'2 3.0
2017-Oct-13 08:58N 59°20' E 018°05'0 0.0
2017-Oct-13 08:28N 59°20' E 018°05'0 0.0
2017-Oct-13 07:58N 59°20' E 018°05'0 0.0
2017-Oct-13 07:30N 59°20' E 018°05'2 3.3
2017-Oct-13 07:00N 59°19' E 018°08'1 2.2
2017-Oct-13 06:29N 59°19' E 018°06'0 0.3
2017-Oct-13 06:00N 59°19' E 018°06'2 3.4
2017-Oct-13 05:30N 59°19' E 018°09'2 3.9
2017-Oct-13 04:56N 59°20' E 018°05'0 0.0
2017-Oct-12 17:30N 59°20' E 018°05'0 0.0
2017-Oct-12 16:54N 59°20' E 018°05'1 1.8
2017-Oct-12 16:29N 59°19' E 018°06'0 1.0
2017-Oct-12 16:00N 59°20' E 018°05'1 1.9
2017-Oct-12 15:30N 59°19' E 018°07'1 1.3
2017-Oct-12 15:00N 59°19' E 018°08'2 3.9
2017-Oct-12 14:30N 59°20' E 018°05'2 4.0
2017-Oct-12 14:00N 59°19' E 018°08'1 1.7
2017-Oct-12 13:30N 59°19' E 018°07'1 2.2
2017-Oct-12 13:00N 59°20' E 018°05'2 4.5
2017-Oct-12 12:30N 59°19' E 018°09'1 2.9
2017-Oct-12 12:00N 59°21' E 018°09'2 3.6
2017-Oct-12 11:30N 59°19' E 018°07'2 3.3
2017-Oct-12 11:00N 59°20' E 018°05'3 5.0
2017-Oct-12 10:30N 59°19' E 018°09'1 2.4
2017-Oct-12 09:59N 59°20' E 018°09'2 3.7
2017-Oct-12 09:30N 59°19' E 018°07'1 2.6
2017-Oct-12 08:59N 59°20' E 018°05'0 0.0
2017-Oct-12 08:29N 59°20' E 018°05'0 0.0
2017-Oct-12 07:59N 59°20' E 018°05'0 0.0
2017-Oct-12 07:29N 59°20' E 018°05'2 3.2
2017-Oct-12 07:00N 59°19' E 018°07'1 1.7
2017-Oct-12 06:30N 59°19' E 018°06'0 0.4
2017-Oct-12 06:00N 59°19' E 018°06'1 2.9
2017-Oct-12 05:30N 59°19' E 018°08'2 3.8
2017-Oct-12 04:58N 59°20' E 018°05'0 0.0
2017-Oct-11 17:43N 59°20' E 018°05'0 0.0
2017-Oct-11 17:28N 59°20' E 018°05'0 0.0
2017-Oct-11 16:58N 59°20' E 018°05'0 0.0
2017-Oct-10 17:14N 59°20' E 018°05'0 0.0
2017-Oct-10 16:59N 59°20' E 018°05'1 1.6
2017-Oct-10 16:30N 59°19' E 018°06'0 0.8
2017-Oct-10 16:01N 59°20' E 018°05'1 1.7
2017-Oct-10 15:31N 59°19' E 018°07'0 0.8
2017-Oct-10 14:57N 59°19' E 018°07'0 0.4
2017-Oct-10 14:00N 59°19' E 018°08'1 1.7
2017-Oct-10 13:29N 59°19' E 018°07'1 2.3
2017-Oct-10 13:00N 59°20' E 018°05'2 4.2
2017-Oct-10 12:29N 59°19' E 018°09'1 2.6
2017-Oct-10 11:59N 59°21' E 018°09'2 3.6
2017-Oct-10 11:29N 59°19' E 018°07'1 2.6
2017-Oct-10 10:58N 59°20' E 018°05'2 3.9
2017-Oct-10 10:30N 59°19' E 018°08'1 2.9
2017-Oct-10 09:59N 59°21' E 018°09'2 3.5
2017-Oct-10 09:29N 59°19' E 018°07'1 3.0
2017-Oct-10 08:59N 59°20' E 018°05'0 0.0
2017-Oct-10 08:23N 59°20' E 018°05'0 0.0
2017-Oct-10 07:59N 59°20' E 018°05'0 0.0
2017-Oct-10 07:29N 59°20' E 018°05'2 3.3
2017-Oct-10 06:59N 59°19' E 018°08'1 2.4
2017-Oct-10 06:27N 59°19' E 018°06'0 0.2
2017-Oct-10 06:00N 59°19' E 018°06'2 3.3
2017-Oct-10 05:30N 59°19' E 018°09'2 3.9
2017-Oct-10 04:56N 59°20' E 018°05'0 0.0
2017-Oct-10 04:28N 59°20' E 018°05'0 0.0
2017-Oct-09 16:43N 59°20' E 018°05'1 2.5
2017-Oct-09 16:29N 59°19' E 018°06'0 0.6
2017-Oct-09 16:00N 59°20' E 018°05'1 1.8
2017-Oct-09 15:30N 59°19' E 018°07'1 1.5
2017-Oct-09 15:00N 59°19' E 018°08'2 3.8
2017-Oct-09 14:28N 59°20' E 018°05'2 4.2
2017-Oct-09 13:59N 59°19' E 018°08'1 1.8
2017-Oct-09 13:29N 59°19' E 018°07'1 3.0
2017-Oct-09 13:00N 59°20' E 018°05'2 4.6
2017-Oct-09 12:28N 59°19' E 018°09'1 3.1
2017-Oct-09 12:00N 59°21' E 018°09'2 3.5
2017-Oct-09 11:29N 59°19' E 018°07'1 2.0
2017-Oct-09 10:57N 59°20' E 018°05'2 4.5
2017-Oct-09 10:30N 59°19' E 018°09'1 2.8
2017-Oct-09 10:01N 59°21' E 018°09'2 3.6
2017-Oct-09 09:30N 59°19' E 018°07'1 2.5
2017-Oct-09 08:56N 59°20' E 018°05'0 0.0
2017-Oct-09 08:26N 59°20' E 018°05'0 0.0
2017-Oct-09 07:57N 59°20' E 018°05'0 0.5
2017-Oct-09 07:27N 59°20' E 018°05'  
Track history (hours):
 
Tides and Currents Weather Stations Pressure Air Temp Water Temp Dewpoint Dewpoint Depression Visibility Wind Speed Wind Dir Waves Ship Positions

Ballerina

Last reported at 2017-Oct-19 07:00 UTC. Time now 2017-Oct-19 07:29 UTC.
Position N 59°19' E 018°08'.

Type: Passenger vessel. MMSI: 265550720.

Date/timePositionNaut miles runAvg speedWind from/ knotsBaromVisibWave heightAir tempDewpointWater temp
2017-Oct-19 07:00N 59°19' E 018°08'1 1.9
2017-Oct-19 06:30N 59°19' E 018°06'0 0.3
2017-Oct-19 06:00N 59°19' E 018°06'1 2.9
2017-Oct-19 05:30N 59°19' E 018°09'2 4.0
2017-Oct-19 04:59N 59°20' E 018°05'0 0.0
2017-Oct-19 04:28N 59°20' E 018°05'0 0.0
2017-Oct-18 16:52N 59°20' E 018°05'1 1.4
2017-Oct-18 16:30N 59°19' E 018°06'0 0.4
2017-Oct-18 16:00N 59°20' E 018°05'1 1.9
2017-Oct-18 15:30N 59°19' E 018°07'1 1.4
2017-Oct-18 15:01N 59°19' E 018°08'0 0.0
2017-Oct-18 14:00N 59°19' E 018°08'1 1.7
2017-Oct-18 13:30N 59°19' E 018°07'1 2.9
2017-Oct-18 13:00N 59°20' E 018°05'2 4.7
2017-Oct-18 12:30N 59°19' E 018°09'1 2.6
2017-Oct-18 12:00N 59°21' E 018°09'2 3.5
2017-Oct-18 11:30N 59°19' E 018°07'1 2.9
2017-Oct-18 11:00N 59°20' E 018°05'2 4.3
2017-Oct-18 10:30N 59°19' E 018°09'1 2.7
2017-Oct-18 10:00N 59°21' E 018°09'2 3.5
2017-Oct-18 09:30N 59°19' E 018°07'2 3.1
2017-Oct-18 09:00N 59°20' E 018°05'0 0.0
2017-Oct-18 08:30N 59°20' E 018°05'0 0.0
2017-Oct-18 08:00N 59°20' E 018°05'0 0.0
2017-Oct-18 07:29N 59°20' E 018°05'2 3.4
2017-Oct-18 07:00N 59°19' E 018°08'1 1.9
2017-Oct-18 06:29N 59°19' E 018°06'0 0.5
2017-Oct-18 05:58N 59°19' E 018°06'1 1.6
2017-Oct-18 05:10N 59°20' E 018°05'0 0.0
2017-Oct-17 17:00N 59°20' E 018°05'1 1.2
2017-Oct-17 16:30N 59°19' E 018°06'1 1.0
2017-Oct-17 15:58N 59°20' E 018°05'1 2.4
2017-Oct-17 15:30N 59°19' E 018°07'1 1.3
2017-Oct-17 14:59N 59°19' E 018°08'2 3.9
2017-Oct-17 14:30N 59°20' E 018°05'2 4.2
2017-Oct-17 14:00N 59°19' E 018°08'1 1.8
2017-Oct-17 13:30N 59°19' E 018°07'1 2.9
2017-Oct-17 13:00N 59°20' E 018°05'2 4.6
2017-Oct-17 12:29N 59°19' E 018°09'1 2.8
2017-Oct-17 12:00N 59°21' E 018°09'2 3.7
2017-Oct-17 11:30N 59°19' E 018°07'1 2.3
2017-Oct-17 11:00N 59°20' E 018°05'2 3.9
2017-Oct-17 10:30N 59°19' E 018°09'1 2.8
2017-Oct-17 10:00N 59°21' E 018°09'2 3.6
2017-Oct-17 09:30N 59°19' E 018°07'2 2.8
2017-Oct-17 08:58N 59°20' E 018°05'0 0.0
2017-Oct-17 08:28N 59°20' E 018°05'0 0.0
2017-Oct-17 07:58N 59°20' E 018°05'0 0.0
2017-Oct-17 07:30N 59°20' E 018°05'2 3.2
2017-Oct-17 07:00N 59°19' E 018°08'1 2.0
2017-Oct-17 06:29N 59°19' E 018°06'0 0.3
2017-Oct-17 06:00N 59°19' E 018°06'1 2.8
2017-Oct-17 05:30N 59°19' E 018°08'2 4.0
2017-Oct-17 05:00N 59°20' E 018°05'0 0.0
2017-Oct-16 17:05N 59°20' E 018°05'0 0.0
2017-Oct-16 16:53N 59°20' E 018°05'1 1.5
2017-Oct-16 16:30N 59°19' E 018°06'0 0.7
2017-Oct-16 16:00N 59°20' E 018°05'1 2.1
2017-Oct-16 15:30N 59°19' E 018°07'0 0.7
2017-Oct-16 15:00N 59°19' E 018°08'0 0.4
2017-Oct-16 14:00N 59°19' E 018°08'1 1.9
2017-Oct-16 13:30N 59°19' E 018°07'1 2.9
2017-Oct-16 13:01N 59°20' E 018°05'2 4.7
2017-Oct-16 12:30N 59°19' E 018°09'1 2.8
2017-Oct-16 12:00N 59°21' E 018°09'2 3.6
2017-Oct-16 11:30N 59°19' E 018°07'2 3.4
2017-Oct-16 11:01N 59°20' E 018°05'2 4.8
2017-Oct-16 10:30N 59°19' E 018°09'1 2.8
2017-Oct-16 10:00N 59°21' E 018°09'2 3.6
2017-Oct-16 09:30N 59°19' E 018°07'2 2.9
2017-Oct-16 08:58N 59°20' E 018°05'0 0.0
2017-Oct-16 08:28N 59°20' E 018°05'0 0.2
2017-Oct-16 08:00N 59°20' E 018°05'0 0.4
2017-Oct-16 07:30N 59°20' E 018°05'2 3.9
2017-Oct-16 06:59N 59°19' E 018°08'1 2.4
2017-Oct-16 06:30N 59°19' E 018°06'0 0.7
2017-Oct-16 05:59N 59°19' E 018°07'1 1.8
2017-Oct-16 05:29N 59°19' E 018°08'2 4.0
2017-Oct-16 05:00N 59°20' E 018°05'  
2017-Oct-13 17:27N 59°20' E 018°05'0 0.0
2017-Oct-13 16:57N 59°20' E 018°05'1 2.2
2017-Oct-13 16:30N 59°19' E 018°06'1 1.5
2017-Oct-13 16:00N 59°20' E 018°05'1 2.0
2017-Oct-13 15:30N 59°19' E 018°07'0 0.9
2017-Oct-13 15:00N 59°19' E 018°08'2 3.5
2017-Oct-13 14:30N 59°20' E 018°05'2 4.1
2017-Oct-13 14:00N 59°19' E 018°08'1 1.8
2017-Oct-13 13:30N 59°19' E 018°07'1 2.6
2017-Oct-13 13:00N 59°20' E 018°05'2 4.8
2017-Oct-13 12:30N 59°19' E 018°09'1 2.8
2017-Oct-13 12:00N 59°21' E 018°09'2 3.5
2017-Oct-13 11:31N 59°19' E 018°07'1 2.7
2017-Oct-13 11:00N 59°20' E 018°05'2 4.2
2017-Oct-13 10:30N 59°19' E 018°09'1 2.8
2017-Oct-13 10:00N 59°21' E 018°09'2 3.6
2017-Oct-13 09:30N 59°19' E 018°07'2 3.0
2017-Oct-13 08:58N 59°20' E 018°05'0 0.0
2017-Oct-13 08:28N 59°20' E 018°05'0 0.0
2017-Oct-13 07:58N 59°20' E 018°05'0 0.0
2017-Oct-13 07:30N 59°20' E 018°05'2 3.3
2017-Oct-13 07:00N 59°19' E 018°08'1 2.2
2017-Oct-13 06:29N 59°19' E 018°06'0 0.3
2017-Oct-13 06:00N 59°19' E 018°06'2 3.4
2017-Oct-13 05:30N 59°19' E 018°09'2 3.9
2017-Oct-13 04:56N 59°20' E 018°05'0 0.0
2017-Oct-12 17:30N 59°20' E 018°05'0 0.0
2017-Oct-12 16:54N 59°20' E 018°05'1 1.8
2017-Oct-12 16:29N 59°19' E 018°06'0 1.0
2017-Oct-12 16:00N 59°20' E 018°05'1 1.9
2017-Oct-12 15:30N 59°19' E 018°07'1 1.3
2017-Oct-12 15:00N 59°19' E 018°08'2 3.9
2017-Oct-12 14:30N 59°20' E 018°05'2 4.0
2017-Oct-12 14:00N 59°19' E 018°08'1 1.7
2017-Oct-12 13:30N 59°19' E 018°07'1 2.2
2017-Oct-12 13:00N 59°20' E 018°05'2 4.5
2017-Oct-12 12:30N 59°19' E 018°09'1 2.9
2017-Oct-12 12:00N 59°21' E 018°09'2 3.6
2017-Oct-12 11:30N 59°19' E 018°07'2 3.3
2017-Oct-12 11:00N 59°20' E 018°05'3 5.0
2017-Oct-12 10:30N 59°19' E 018°09'1 2.4
2017-Oct-12 09:59N 59°20' E 018°09'2 3.7
2017-Oct-12 09:30N 59°19' E 018°07'1 2.6
2017-Oct-12 08:59N 59°20' E 018°05'0 0.0
2017-Oct-12 08:29N 59°20' E 018°05'0 0.0
2017-Oct-12 07:59N 59°20' E 018°05'0 0.0
2017-Oct-12 07:29N 59°20' E 018°05'2 3.2
2017-Oct-12 07:00N 59°19' E 018°07'1 1.7
2017-Oct-12 06:30N 59°19' E 018°06'0 0.4
2017-Oct-12 06:00N 59°19' E 018°06'1 2.9
2017-Oct-12 05:30N 59°19' E 018°08'2 3.8
2017-Oct-12 04:58N 59°20' E 018°05'0 0.0
2017-Oct-11 17:43N 59°20' E 018°05'0 0.0
2017-Oct-11 17:28N 59°20' E 018°05'0 0.0
2017-Oct-11 16:58N 59°20' E 018°05'0 0.0
2017-Oct-10 17:14N 59°20' E 018°05'0 0.0
2017-Oct-10 16:59N 59°20' E 018°05'1 1.6
2017-Oct-10 16:30N 59°19' E 018°06'0 0.8
2017-Oct-10 16:01N 59°20' E 018°05'1 1.7
2017-Oct-10 15:31N 59°19' E 018°07'0 0.8
2017-Oct-10 14:57N 59°19' E 018°07'0 0.4
2017-Oct-10 14:00N 59°19' E 018°08'1 1.7
2017-Oct-10 13:29N 59°19' E 018°07'1 2.3
2017-Oct-10 13:00N 59°20' E 018°05'2 4.2
2017-Oct-10 12:29N 59°19' E 018°09'1 2.6
2017-Oct-10 11:59N 59°21' E 018°09'2 3.6
2017-Oct-10 11:29N 59°19' E 018°07'1 2.6
2017-Oct-10 10:58N 59°20' E 018°05'2 3.9
2017-Oct-10 10:30N 59°19' E 018°08'1 2.9
2017-Oct-10 09:59N 59°21' E 018°09'2 3.5
2017-Oct-10 09:29N 59°19' E 018°07'1 3.0
2017-Oct-10 08:59N 59°20' E 018°05'0 0.0
2017-Oct-10 08:23N 59°20' E 018°05'0 0.0
2017-Oct-10 07:59N 59°20' E 018°05'0 0.0
2017-Oct-10 07:29N 59°20' E 018°05'2 3.3
2017-Oct-10 06:59N 59°19' E 018°08'1 2.4
2017-Oct-10 06:27N 59°19' E 018°06'0 0.2
2017-Oct-10 06:00N 59°19' E 018°06'2 3.3
2017-Oct-10 05:30N 59°19' E 018°09'2 3.9
2017-Oct-10 04:56N 59°20' E 018°05'0 0.0
2017-Oct-10 04:28N 59°20' E 018°05'0 0.0
2017-Oct-09 16:43N 59°20' E 018°05'1 2.5
2017-Oct-09 16:29N 59°19' E 018°06'0 0.6
2017-Oct-09 16:00N 59°20' E 018°05'1 1.8
2017-Oct-09 15:30N 59°19' E 018°07'1 1.5
2017-Oct-09 15:00N 59°19' E 018°08'2 3.8
2017-Oct-09 14:28N 59°20' E 018°05'2 4.2
2017-Oct-09 13:59N 59°19' E 018°08'1 1.8
2017-Oct-09 13:29N 59°19' E 018°07'1 3.0
2017-Oct-09 13:00N 59°20' E 018°05'2 4.6
2017-Oct-09 12:28N 59°19' E 018°09'1 3.1
2017-Oct-09 12:00N 59°21' E 018°09'2 3.5
2017-Oct-09 11:29N 59°19' E 018°07'1 2.0
2017-Oct-09 10:57N 59°20' E 018°05'2 4.5
2017-Oct-09 10:30N 59°19' E 018°09'1 2.8
2017-Oct-09 10:01N 59°21' E 018°09'2 3.6
2017-Oct-09 09:30N 59°19' E 018°07'1 2.5
2017-Oct-09 08:56N 59°20' E 018°05'0 0.0
2017-Oct-09 08:26N 59°20' E 018°05'0 0.0
2017-Oct-09 07:57N 59°20' E 018°05'0 0.5
2017-Oct-09 07:27N 59°20' E 018°05'  

Dump ship's entire track history